Southampton, MA (01073)

10:44 AM EDT on August 25, 2016 (GMT -0400)
The Plains | | Change Station

Elev 264 ft 42.23 °N, 72.67 °W | Updated 38 seconds ago

Clear
Clear
80.6 °F
Feels Like 80 °F
N
0.2
Wind Variable Wind from SW
Gusts 2.5 mph

Today
High -- | Low -- °F
--% Chance of Precip.
Yesterday
High -- | Low -- °F
Precip. -- in
Pressure 30.07 in
Visibility 10.0 miles
Clouds Clear
Heat Index 80 °F
Dew Point 54 °F
Humidity 40%
Rainfall 0.00 in
Snow Depth Not available.
6:09 AM 7:35 PM
Last Quarter, 45% visible
METAR KBAF 251353Z 19009KT 10SM CLR 25/19 A3007 RMK AO2 SLP181 T02500189
Pressure 30.07 in
Visibility 10.0 miles
Clouds Clear
Heat Index 80 °F
Dew Point 54 °F
Humidity 40%
Rainfall 0.00 in
Snow Depth Not available.
6:09 AM 7:35 PM
Last Quarter, 45% visible
METAR KBAF 251353Z 19009KT 10SM CLR 25/19 A3007 RMK AO2 SLP181 T02500189

10-Day Weather Forecast

Almanac

Astronomy

Aug. 25, 2016 Rise Set
Actual Time
Civil Twilight
Nautical Twilight
Astronomical Twilight
Moon
Length of Visible Light
Length of Day
Tomorrow will be .
, % of the Moon is Illuminated

Today's Extremes

State Highs State Lows

Community

WunderPhotos

Upload Photos

1,934,850 photos uploaded!

WunderBlog® & News

Nearby

Air Quality

  Air Quality AQ Index Pollutant
Not available.

Snow Depth

Station Depth Elevation

Earthquake Activity

City Distance Mag. Time & Date
Minimum magnitude displayed is 2.5.

Coastal Water Temperatures

Place Temperature

Stations

Nearby Weather Stations

Station Location Temp. Windchill Dew Point Humidity Wind Precip. Elev Updated Type
                   

Watches & Warnings

There are currently no watches in effect.